sensor_id;sensor_type;location;lat;lon;timestamp;temperature;humidity
65568;DHT22;52211;50.154;8.682;2023-08-01T00:00:32;19.10;67.80
65568;DHT22;52211;50.154;8.682;2023-08-01T00:03:03;19.10;67.80
65568;DHT22;52211;50.154;8.682;2023-08-01T00:05:32;19.10;67.90
65568;DHT22;52211;50.154;8.682;2023-08-01T00:08:04;19.10;68.10
65568;DHT22;52211;50.154;8.682;2023-08-01T00:10:33;19.10;68.40
65568;DHT22;52211;50.154;8.682;2023-08-01T00:13:02;19.10;68.30
65568;DHT22;52211;50.154;8.682;2023-08-01T00:15:29;19.10;68.30
65568;DHT22;52211;50.154;8.682;2023-08-01T00:18:01;19.10;68.40
65568;DHT22;52211;50.154;8.682;2023-08-01T00:20:31;19.10;68.60
65568;DHT22;52211;50.154;8.682;2023-08-01T00:23:01;19.10;68.60
65568;DHT22;52211;50.154;8.682;2023-08-01T00:25:28;19.10;68.70
65568;DHT22;52211;50.154;8.682;2023-08-01T00:28:00;19.10;68.80
65568;DHT22;52211;50.154;8.682;2023-08-01T00:30:29;19.10;69.00
65568;DHT22;52211;50.154;8.682;2023-08-01T00:33:00;19.20;68.90
65568;DHT22;52211;50.154;8.682;2023-08-01T00:35:27;19.10;69.00
65568;DHT22;52211;50.154;8.682;2023-08-01T00:37:54;19.20;69.00
65568;DHT22;52211;50.154;8.682;2023-08-01T00:40:33;19.10;69.00
65568;DHT22;52211;50.154;8.682;2023-08-01T00:43:00;19.10;70.00
65568;DHT22;52211;50.154;8.682;2023-08-01T00:45:29;19.20;69.10
65568;DHT22;52211;50.154;8.682;2023-08-01T00:47:59;19.10;69.30
65568;DHT22;52211;50.154;8.682;2023-08-01T00:50:31;19.10;69.50
65568;DHT22;52211;50.154;8.682;2023-08-01T00:53:02;19.20;69.50
65568;DHT22;52211;50.154;8.682;2023-08-01T00:55:32;19.20;69.50
65568;DHT22;52211;50.154;8.682;2023-08-01T00:58:00;19.20;69.80
65568;DHT22;52211;50.154;8.682;2023-08-01T01:00:32;19.20;70.10
65568;DHT22;52211;50.154;8.682;2023-08-01T01:03:05;19.20;69.60
65568;DHT22;52211;50.154;8.682;2023-08-01T01:05:36;19.20;69.80
65568;DHT22;52211;50.154;8.682;2023-08-01T01:08:04;19.20;69.80
65568;DHT22;52211;50.154;8.682;2023-08-01T01:10:36;19.20;69.70
65568;DHT22;52211;50.154;8.682;2023-08-01T01:13:05;19.20;69.90
65568;DHT22;52211;50.154;8.682;2023-08-01T01:15:32;19.20;69.80
65568;DHT22;52211;50.154;8.682;2023-08-01T01:18:02;19.20;69.80
65568;DHT22;52211;50.154;8.682;2023-08-01T01:20:34;19.20;69.80
65568;DHT22;52211;50.154;8.682;2023-08-01T01:23:06;19.20;70.10
65568;DHT22;52211;50.154;8.682;2023-08-01T01:25:41;19.20;70.30
65568;DHT22;52211;50.154;8.682;2023-08-01T01:28:13;19.20;70.20
65568;DHT22;52211;50.154;8.682;2023-08-01T01:30:47;19.20;70.10
65568;DHT22;52211;50.154;8.682;2023-08-01T01:33:19;19.20;70.10
65568;DHT22;52211;50.154;8.682;2023-08-01T01:35:51;19.20;70.20
65568;DHT22;52211;50.154;8.682;2023-08-01T01:38:20;19.20;70.30
65568;DHT22;52211;50.154;8.682;2023-08-01T01:40:47;19.20;70.40
65568;DHT22;52211;50.154;8.682;2023-08-01T01:43:16;19.20;70.50
65568;DHT22;52211;50.154;8.682;2023-08-01T01:45:45;19.20;70.70
65568;DHT22;52211;50.154;8.682;2023-08-01T01:48:15;19.20;70.60
65568;DHT22;52211;50.154;8.682;2023-08-01T01:50:42;19.20;70.80
65568;DHT22;52211;50.154;8.682;2023-08-01T01:53:13;19.20;70.70
65568;DHT22;52211;50.154;8.682;2023-08-01T01:55:49;19.20;70.80
65568;DHT22;52211;50.154;8.682;2023-08-01T01:58:16;19.20;71.00
65568;DHT22;52211;50.154;8.682;2023-08-01T02:00:45;19.20;71.00
65568;DHT22;52211;50.154;8.682;2023-08-01T02:03:17;19.20;70.90
65568;DHT22;52211;50.154;8.682;2023-08-01T02:05:44;19.20;71.10
65568;DHT22;52211;50.154;8.682;2023-08-01T02:08:11;19.20;71.10
65568;DHT22;52211;50.154;8.682;2023-08-01T02:10:43;19.20;71.10
65568;DHT22;52211;50.154;8.682;2023-08-01T02:13:10;19.20;71.30
65568;DHT22;52211;50.154;8.682;2023-08-01T02:15:41;19.20;71.30
65568;DHT22;52211;50.154;8.682;2023-08-01T02:18:10;19.30;71.50
65568;DHT22;52211;50.154;8.682;2023-08-01T02:20:37;19.20;71.30
65568;DHT22;52211;50.154;8.682;2023-08-01T02:23:04;19.30;71.50
65568;DHT22;52211;50.154;8.682;2023-08-01T02:25:31;19.20;71.90
65568;DHT22;52211;50.154;8.682;2023-08-01T02:27:58;19.30;71.60
65568;DHT22;52211;50.154;8.682;2023-08-01T02:30:29;19.20;71.60
65568;DHT22;52211;50.154;8.682;2023-08-01T02:32:58;19.20;71.60
65568;DHT22;52211;50.154;8.682;2023-08-01T02:35:29;19.30;71.70
65568;DHT22;52211;50.154;8.682;2023-08-01T02:37:56;19.30;71.80
65568;DHT22;52211;50.154;8.682;2023-08-01T02:40:23;19.30;71.70
65568;DHT22;52211;50.154;8.682;2023-08-01T02:42:57;19.30;71.80
65568;DHT22;52211;50.154;8.682;2023-08-01T02:45:24;19.30;72.00
65568;DHT22;52211;50.154;8.682;2023-08-01T02:47:55;19.30;71.90
65568;DHT22;52211;50.154;8.682;2023-08-01T02:50:24;19.30;71.80
65568;DHT22;52211;50.154;8.682;2023-08-01T02:52:54;19.30;71.90
65568;DHT22;52211;50.154;8.682;2023-08-01T02:55:25;19.30;71.90
65568;DHT22;52211;50.154;8.682;2023-08-01T02:57:55;19.30;72.00
65568;DHT22;52211;50.154;8.682;2023-08-01T03:00:22;19.30;72.00
65568;DHT22;52211;50.154;8.682;2023-08-01T03:02:51;19.40;72.00
65568;DHT22;52211;50.154;8.682;2023-08-01T03:05:20;19.30;72.10
65568;DHT22;52211;50.154;8.682;2023-08-01T03:07:50;19.30;72.10
65568;DHT22;52211;50.154;8.682;2023-08-01T03:10:17;19.40;72.40
65568;DHT22;52211;50.154;8.682;2023-08-01T03:13:04;19.40;72.20
65568;DHT22;52211;50.154;8.682;2023-08-01T03:15:33;19.30;72.20
65568;DHT22;52211;50.154;8.682;2023-08-01T03:18:07;19.40;72.30
65568;DHT22;52211;50.154;8.682;2023-08-01T03:20:37;19.40;72.40
65568;DHT22;52211;50.154;8.682;2023-08-01T03:23:04;19.40;72.50
65568;DHT22;52211;50.154;8.682;2023-08-01T03:25:38;19.40;72.50
65568;DHT22;52211;50.154;8.682;2023-08-01T03:28:05;19.40;72.70
65568;DHT22;52211;50.154;8.682;2023-08-01T03:30:33;19.40;72.60
65568;DHT22;52211;50.154;8.682;2023-08-01T03:33:03;19.40;72.60
65568;DHT22;52211;50.154;8.682;2023-08-01T03:35:30;19.40;72.70
65568;DHT22;52211;50.154;8.682;2023-08-01T03:37:57;19.40;72.70
65568;DHT22;52211;50.154;8.682;2023-08-01T03:40:26;19.40;72.70
65568;DHT22;52211;50.154;8.682;2023-08-01T03:42:55;19.40;72.70
65568;DHT22;52211;50.154;8.682;2023-08-01T03:45:22;19.40;72.70
65568;DHT22;52211;50.154;8.682;2023-08-01T03:47:56;19.40;72.80
65568;DHT22;52211;50.154;8.682;2023-08-01T03:50:26;19.40;73.00
65568;DHT22;52211;50.154;8.682;2023-08-01T03:52:53;19.40;72.90
65568;DHT22;52211;50.154;8.682;2023-08-01T03:55:22;19.40;73.10
65568;DHT22;52211;50.154;8.682;2023-08-01T03:57:51;19.40;73.00
65568;DHT22;52211;50.154;8.682;2023-08-01T04:00:18;19.40;73.20
65568;DHT22;52211;50.154;8.682;2023-08-01T04:02:45;19.40;73.20
65568;DHT22;52211;50.154;8.682;2023-08-01T04:05:17;19.40;73.30
65568;DHT22;52211;50.154;8.682;2023-08-01T04:07:48;19.40;73.40
65568;DHT22;52211;50.154;8.682;2023-08-01T04:10:24;19.40;73.40
65568;DHT22;52211;50.154;8.682;2023-08-01T04:12:53;19.40;73.60
65568;DHT22;52211;50.154;8.682;2023-08-01T04:15:20;19.40;73.70
65568;DHT22;52211;50.154;8.682;2023-08-01T04:17:47;19.40;73.70
65568;DHT22;52211;50.154;8.682;2023-08-01T04:20:14;19.40;73.80
65568;DHT22;52211;50.154;8.682;2023-08-01T04:22:43;19.40;73.80
65568;DHT22;52211;50.154;8.682;2023-08-01T04:25:12;19.40;73.90
65568;DHT22;52211;50.154;8.682;2023-08-01T04:27:42;19.40;73.90
65568;DHT22;52211;50.154;8.682;2023-08-01T04:30:12;19.40;74.00
65568;DHT22;52211;50.154;8.682;2023-08-01T04:32:41;19.40;74.00
65568;DHT22;52211;50.154;8.682;2023-08-01T04:35:10;19.40;74.10
65568;DHT22;52211;50.154;8.682;2023-08-01T04:37:36;19.40;74.10
65568;DHT22;52211;50.154;8.682;2023-08-01T04:40:04;19.40;74.10
65568;DHT22;52211;50.154;8.682;2023-08-01T04:42:35;19.40;74.20
65568;DHT22;52211;50.154;8.682;2023-08-01T04:45:07;19.40;74.30
65568;DHT22;52211;50.154;8.682;2023-08-01T04:47:39;19.40;74.30
65568;DHT22;52211;50.154;8.682;2023-08-01T04:50:11;19.40;74.40
65568;DHT22;52211;50.154;8.682;2023-08-01T04:52:40;19.40;74.30
65568;DHT22;52211;50.154;8.682;2023-08-01T04:55:09;19.40;74.50
65568;DHT22;52211;50.154;8.682;2023-08-01T04:57:38;19.40;74.40
65568;DHT22;52211;50.154;8.682;2023-08-01T05:00:06;19.40;74.50
65568;DHT22;52211;50.154;8.682;2023-08-01T05:02:38;19.40;74.50
65568;DHT22;52211;50.154;8.682;2023-08-01T05:05:07;19.40;74.50
65568;DHT22;52211;50.154;8.682;2023-08-01T05:07:42;19.40;74.60
65568;DHT22;52211;50.154;8.682;2023-08-01T05:10:11;19.40;74.80
65568;DHT22;52211;50.154;8.682;2023-08-01T05:12:43;19.40;74.80
65568;DHT22;52211;50.154;8.682;2023-08-01T05:15:10;19.40;74.80
65568;DHT22;52211;50.154;8.682;2023-08-01T05:17:39;19.40;74.90
65568;DHT22;52211;50.154;8.682;2023-08-01T05:20:07;19.40;74.90
65568;DHT22;52211;50.154;8.682;2023-08-01T05:22:39;19.40;75.00
65568;DHT22;52211;50.154;8.682;2023-08-01T05:25:08;19.40;75.00
65568;DHT22;52211;50.154;8.682;2023-08-01T05:27:37;19.30;75.00
65568;DHT22;52211;50.154;8.682;2023-08-01T05:30:06;19.40;75.10
65568;DHT22;52211;50.154;8.682;2023-08-01T05:32:36;19.30;75.10
65568;DHT22;52211;50.154;8.682;2023-08-01T05:35:09;19.30;75.10
65568;DHT22;52211;50.154;8.682;2023-08-01T05:37:36;19.30;75.20
65568;DHT22;52211;50.154;8.682;2023-08-01T05:40:04;19.30;75.20
65568;DHT22;52211;50.154;8.682;2023-08-01T05:42:38;19.30;75.30
65568;DHT22;52211;50.154;8.682;2023-08-01T05:45:05;19.30;75.40
65568;DHT22;52211;50.154;8.682;2023-08-01T05:47:35;19.30;75.40
65568;DHT22;52211;50.154;8.682;2023-08-01T05:50:03;19.30;75.40
65568;DHT22;52211;50.154;8.682;2023-08-01T05:52:30;19.30;75.40
65568;DHT22;52211;50.154;8.682;2023-08-01T05:55:02;19.30;75.40
65568;DHT22;52211;50.154;8.682;2023-08-01T05:57:31;19.30;75.50
65568;DHT22;52211;50.154;8.682;2023-08-01T06:00:01;19.20;75.50
65568;DHT22;52211;50.154;8.682;2023-08-01T06:02:40;19.30;75.60
65568;DHT22;52211;50.154;8.682;2023-08-01T06:05:09;19.20;75.50
65568;DHT22;52211;50.154;8.682;2023-08-01T06:07:36;19.20;75.60
65568;DHT22;52211;50.154;8.682;2023-08-01T06:10:04;19.20;75.60
65568;DHT22;52211;50.154;8.682;2023-08-01T06:12:35;19.20;75.70
65568;DHT22;52211;50.154;8.682;2023-08-01T06:15:05;19.20;75.70
65568;DHT22;52211;50.154;8.682;2023-08-01T06:17:32;19.20;75.70
65568;DHT22;52211;50.154;8.682;2023-08-01T06:20:01;19.20;75.70
65568;DHT22;52211;50.154;8.682;2023-08-01T06:22:31;19.20;75.80
65568;DHT22;52211;50.154;8.682;2023-08-01T06:25:00;19.20;76.00
65568;DHT22;52211;50.154;8.682;2023-08-01T06:27:29;19.20;76.10
65568;DHT22;52211;50.154;8.682;2023-08-01T06:30:01;19.20;76.10
65568;DHT22;52211;50.154;8.682;2023-08-01T06:32:32;19.20;76.10
65568;DHT22;52211;50.154;8.682;2023-08-01T06:35:02;19.20;76.20
65568;DHT22;52211;50.154;8.682;2023-08-01T06:37:32;19.20;76.10
65568;DHT22;52211;50.154;8.682;2023-08-01T06:40:00;19.20;76.70
65568;DHT22;52211;50.154;8.682;2023-08-01T06:42:32;19.20;76.10
65568;DHT22;52211;50.154;8.682;2023-08-01T06:44:59;19.20;76.10
65568;DHT22;52211;50.154;8.682;2023-08-01T06:47:26;19.30;76.20
65568;DHT22;52211;50.154;8.682;2023-08-01T06:49:53;19.20;76.20
65568;DHT22;52211;50.154;8.682;2023-08-01T06:52:20;19.20;76.30
65568;DHT22;52211;50.154;8.682;2023-08-01T06:54:50;19.20;76.50
65568;DHT22;52211;50.154;8.682;2023-08-01T06:57:19;19.20;76.50
65568;DHT22;52211;50.154;8.682;2023-08-01T06:59:50;19.30;76.50
65568;DHT22;52211;50.154;8.682;2023-08-01T07:02:19;19.30;76.60
65568;DHT22;52211;50.154;8.682;2023-08-01T07:04:46;19.30;76.40
65568;DHT22;52211;50.154;8.682;2023-08-01T07:07:16;19.30;76.50
65568;DHT22;52211;50.154;8.682;2023-08-01T07:09:43;19.30;76.50
65568;DHT22;52211;50.154;8.682;2023-08-01T07:12:14;19.40;76.80
65568;DHT22;52211;50.154;8.682;2023-08-01T07:14:46;19.40;76.80
65568;DHT22;52211;50.154;8.682;2023-08-01T07:17:15;19.40;76.90
65568;DHT22;52211;50.154;8.682;2023-08-01T07:19:46;19.50;76.90
65568;DHT22;52211;50.154;8.682;2023-08-01T07:22:13;19.50;76.70
65568;DHT22;52211;50.154;8.682;2023-08-01T07:24:45;19.60;76.60
65568;DHT22;52211;50.154;8.682;2023-08-01T07:27:12;19.50;76.30
65568;DHT22;52211;50.154;8.682;2023-08-01T07:29:41;19.60;76.50
65568;DHT22;52211;50.154;8.682;2023-08-01T07:32:10;19.60;76.40
65568;DHT22;52211;50.154;8.682;2023-08-01T07:34:37;19.60;76.30
65568;DHT22;52211;50.154;8.682;2023-08-01T07:37:06;19.60;76.30
65568;DHT22;52211;50.154;8.682;2023-08-01T07:39:35;19.60;76.30
65568;DHT22;52211;50.154;8.682;2023-08-01T07:42:04;19.70;76.40
65568;DHT22;52211;50.154;8.682;2023-08-01T07:44:33;19.70;76.30
65568;DHT22;52211;50.154;8.682;2023-08-01T07:47:05;19.60;76.20
65568;DHT22;52211;50.154;8.682;2023-08-01T07:49:32;19.60;76.20
65568;DHT22;52211;50.154;8.682;2023-08-01T07:51:58;19.70;76.10
65568;DHT22;52211;50.154;8.682;2023-08-01T07:54:28;19.70;75.90
65568;DHT22;52211;50.154;8.682;2023-08-01T07:56:57;19.60;75.80
65568;DHT22;52211;50.154;8.682;2023-08-01T07:59:24;19.60;75.60
65568;DHT22;52211;50.154;8.682;2023-08-01T08:01:56;19.50;75.60
65568;DHT22;52211;50.154;8.682;2023-08-01T08:04:30;19.50;75.50
65568;DHT22;52211;50.154;8.682;2023-08-01T08:06:59;19.50;75.60
65568;DHT22;52211;50.154;8.682;2023-08-01T08:09:29;19.40;75.60
65568;DHT22;52211;50.154;8.682;2023-08-01T08:11:58;19.40;75.70
65568;DHT22;52211;50.154;8.682;2023-08-01T08:14:26;19.40;75.90
65568;DHT22;52211;50.154;8.682;2023-08-01T08:16:55;19.40;76.00
65568;DHT22;52211;50.154;8.682;2023-08-01T08:19:22;19.40;76.10
65568;DHT22;52211;50.154;8.682;2023-08-01T08:21:52;19.40;76.20
65568;DHT22;52211;50.154;8.682;2023-08-01T08:24:24;19.50;76.30
65568;DHT22;52211;50.154;8.682;2023-08-01T08:26:50;19.50;76.30
65568;DHT22;52211;50.154;8.682;2023-08-01T08:29:20;19.50;76.30
65568;DHT22;52211;50.154;8.682;2023-08-01T08:31:47;19.60;76.30
65568;DHT22;52211;50.154;8.682;2023-08-01T08:34:14;19.60;76.30
65568;DHT22;52211;50.154;8.682;2023-08-01T08:36:41;19.70;76.30
65568;DHT22;52211;50.154;8.682;2023-08-01T08:39:15;19.70;76.00
65568;DHT22;52211;50.154;8.682;2023-08-01T08:41:47;19.70;76.10
65568;DHT22;52211;50.154;8.682;2023-08-01T08:44:23;19.80;76.00
65568;DHT22;52211;50.154;8.682;2023-08-01T08:47:02;19.90;75.90
65568;DHT22;52211;50.154;8.682;2023-08-01T08:49:33;19.90;75.60
65568;DHT22;52211;50.154;8.682;2023-08-01T08:52:00;20.00;75.60
65568;DHT22;52211;50.154;8.682;2023-08-01T08:54:30;20.10;75.40
65568;DHT22;52211;50.154;8.682;2023-08-01T08:57:01;20.10;75.30
65568;DHT22;52211;50.154;8.682;2023-08-01T08:59:30;20.20;75.20
65568;DHT22;52211;50.154;8.682;2023-08-01T09:02:01;20.20;74.80
65568;DHT22;52211;50.154;8.682;2023-08-01T09:04:33;20.30;74.40
65568;DHT22;52211;50.154;8.682;2023-08-01T09:07:09;20.30;74.40
65568;DHT22;52211;50.154;8.682;2023-08-01T09:09:42;20.30;74.10
65568;DHT22;52211;50.154;8.682;2023-08-01T09:12:09;20.40;73.90
65568;DHT22;52211;50.154;8.682;2023-08-01T09:14:36;20.40;73.90
65568;DHT22;52211;50.154;8.682;2023-08-01T09:17:07;20.40;73.60
65568;DHT22;52211;50.154;8.682;2023-08-01T09:19:35;20.50;73.50
65568;DHT22;52211;50.154;8.682;2023-08-01T09:22:10;20.50;73.60
65568;DHT22;52211;50.154;8.682;2023-08-01T09:24:51;20.60;73.70
65568;DHT22;52211;50.154;8.682;2023-08-01T09:27:21;20.60;73.20
65568;DHT22;52211;50.154;8.682;2023-08-01T09:30:04;20.70;73.30
65568;DHT22;52211;50.154;8.682;2023-08-01T09:32:31;20.80;73.30
65568;DHT22;52211;50.154;8.682;2023-08-01T09:34:59;20.90;73.00
65568;DHT22;52211;50.154;8.682;2023-08-01T09:37:26;20.90;72.90
65568;DHT22;52211;50.154;8.682;2023-08-01T09:40:04;21.00;72.80
65568;DHT22;52211;50.154;8.682;2023-08-01T09:42:41;21.00;72.80
65568;DHT22;52211;50.154;8.682;2023-08-01T09:47:42;21.20;72.40
65568;DHT22;52211;50.154;8.682;2023-08-01T09:50:21;21.30;72.40
65568;DHT22;52211;50.154;8.682;2023-08-01T09:52:53;21.40;72.10
65568;DHT22;52211;50.154;8.682;2023-08-01T09:55:28;21.50;71.70
65568;DHT22;52211;50.154;8.682;2023-08-01T09:58:02;21.60;71.00
65568;DHT22;52211;50.154;8.682;2023-08-01T10:00:36;21.70;70.50
65568;DHT22;52211;50.154;8.682;2023-08-01T10:03:04;21.80;70.40
65568;DHT22;52211;50.154;8.682;2023-08-01T10:05:32;21.90;70.50
65568;DHT22;52211;50.154;8.682;2023-08-01T10:08:04;21.80;70.20
65568;DHT22;52211;50.154;8.682;2023-08-01T10:10:32;21.80;69.40
65568;DHT22;52211;50.154;8.682;2023-08-01T10:13:01;21.90;69.50
65568;DHT22;52211;50.154;8.682;2023-08-01T10:15:28;22.00;69.40
65568;DHT22;52211;50.154;8.682;2023-08-01T10:17:58;22.10;69.50
65568;DHT22;52211;50.154;8.682;2023-08-01T10:20:30;22.20;68.80
65568;DHT22;52211;50.154;8.682;2023-08-01T10:23:03;22.20;68.60
65568;DHT22;52211;50.154;8.682;2023-08-01T10:25:34;22.30;68.40
65568;DHT22;52211;50.154;8.682;2023-08-01T10:28:05;22.40;68.10
65568;DHT22;52211;50.154;8.682;2023-08-01T10:30:35;22.50;66.80
65568;DHT22;52211;50.154;8.682;2023-08-01T10:33:04;22.50;66.70
65568;DHT22;52211;50.154;8.682;2023-08-01T10:35:37;22.50;66.40
65568;DHT22;52211;50.154;8.682;2023-08-01T10:38:10;22.60;66.00
65568;DHT22;52211;50.154;8.682;2023-08-01T10:40:42;22.60;65.10
65568;DHT22;52211;50.154;8.682;2023-08-01T10:43:21;22.70;65.80
65568;DHT22;52211;50.154;8.682;2023-08-01T10:45:59;22.80;65.40
65568;DHT22;52211;50.154;8.682;2023-08-01T10:48:30;22.90;65.20
65568;DHT22;52211;50.154;8.682;2023-08-01T10:50:59;23.00;64.80
65568;DHT22;52211;50.154;8.682;2023-08-01T10:53:38;23.10;64.40
65568;DHT22;52211;50.154;8.682;2023-08-01T10:56:18;23.10;64.50
65568;DHT22;52211;50.154;8.682;2023-08-01T10:58:48;23.10;63.80
65568;DHT22;52211;50.154;8.682;2023-08-01T11:01:15;23.20;63.90
65568;DHT22;52211;50.154;8.682;2023-08-01T11:03:45;23.20;63.70
65568;DHT22;52211;50.154;8.682;2023-08-01T11:06:14;23.20;64.10
65568;DHT22;52211;50.154;8.682;2023-08-01T11:08:41;23.20;63.30
65568;DHT22;52211;50.154;8.682;2023-08-01T11:11:14;23.20;63.30
65568;DHT22;52211;50.154;8.682;2023-08-01T11:13:54;23.20;62.80
65568;DHT22;52211;50.154;8.682;2023-08-01T11:16:25;23.20;62.90
65568;DHT22;52211;50.154;8.682;2023-08-01T11:18:52;23.20;63.10
65568;DHT22;52211;50.154;8.682;2023-08-01T11:21:26;23.30;62.70
65568;DHT22;52211;50.154;8.682;2023-08-01T11:24:06;23.30;61.10
65568;DHT22;52211;50.154;8.682;2023-08-01T11:26:39;23.40;61.50
65568;DHT22;52211;50.154;8.682;2023-08-01T11:29:13;23.40;61.70
65568;DHT22;52211;50.154;8.682;2023-08-01T11:31:55;23.50;61.30
65568;DHT22;52211;50.154;8.682;2023-08-01T11:34:28;23.50;61.40
65568;DHT22;52211;50.154;8.682;2023-08-01T11:37:10;23.60;61.80
65568;DHT22;52211;50.154;8.682;2023-08-01T11:39:40;23.70;61.80
65568;DHT22;52211;50.154;8.682;2023-08-01T11:42:07;23.90;62.20
65568;DHT22;52211;50.154;8.682;2023-08-01T11:44:41;24.10;61.80
65568;DHT22;52211;50.154;8.682;2023-08-01T11:47:15;24.30;61.10
65568;DHT22;52211;50.154;8.682;2023-08-01T11:49:47;24.60;60.20
65568;DHT22;52211;50.154;8.682;2023-08-01T11:52:28;24.70;59.20
65568;DHT22;52211;50.154;8.682;2023-08-01T11:54:58;24.90;59.60
65568;DHT22;52211;50.154;8.682;2023-08-01T11:57:28;25.10;59.40
65568;DHT22;52211;50.154;8.682;2023-08-01T11:59:58;25.30;58.90
65568;DHT22;52211;50.154;8.682;2023-08-01T12:02:40;25.40;58.40
65568;DHT22;52211;50.154;8.682;2023-08-01T12:05:09;25.50;58.10
65568;DHT22;52211;50.154;8.682;2023-08-01T12:07:39;25.50;57.80
65568;DHT22;52211;50.154;8.682;2023-08-01T12:10:08;25.50;57.60
65568;DHT22;52211;50.154;8.682;2023-08-01T12:12:46;25.50;58.00
65568;DHT22;52211;50.154;8.682;2023-08-01T12:15:17;25.50;57.40
65568;DHT22;52211;50.154;8.682;2023-08-01T12:17:48;25.30;56.80
65568;DHT22;52211;50.154;8.682;2023-08-01T12:20:18;25.10;57.20
65568;DHT22;52211;50.154;8.682;2023-08-01T12:22:46;24.90;57.00
65568;DHT22;52211;50.154;8.682;2023-08-01T12:25:13;24.70;57.60
65568;DHT22;52211;50.154;8.682;2023-08-01T12:27:40;24.50;58.00
65568;DHT22;52211;50.154;8.682;2023-08-01T12:30:10;24.30;58.30
65568;DHT22;52211;50.154;8.682;2023-08-01T12:32:37;24.30;58.40
65568;DHT22;52211;50.154;8.682;2023-08-01T12:35:07;24.20;58.60
65568;DHT22;52211;50.154;8.682;2023-08-01T12:37:34;24.20;58.50
65568;DHT22;52211;50.154;8.682;2023-08-01T12:40:01;24.20;58.50
65568;DHT22;52211;50.154;8.682;2023-08-01T12:42:35;24.10;58.00
65568;DHT22;52211;50.154;8.682;2023-08-01T12:45:05;24.10;58.20
65568;DHT22;52211;50.154;8.682;2023-08-01T12:47:34;24.10;58.30
65568;DHT22;52211;50.154;8.682;2023-08-01T12:50:06;23.90;58.20
65568;DHT22;52211;50.154;8.682;2023-08-01T12:52:41;23.80;58.10
65568;DHT22;52211;50.154;8.682;2023-08-01T12:55:10;23.60;58.10
65568;DHT22;52211;50.154;8.682;2023-08-01T12:57:37;23.40;58.60
65568;DHT22;52211;50.154;8.682;2023-08-01T13:00:07;23.20;59.00
65568;DHT22;52211;50.154;8.682;2023-08-01T13:02:37;23.00;59.70
65568;DHT22;52211;50.154;8.682;2023-08-01T13:05:05;22.90;60.20
65568;DHT22;52211;50.154;8.682;2023-08-01T13:07:32;22.90;61.10
65568;DHT22;52211;50.154;8.682;2023-08-01T13:10:01;22.90;61.70
65568;DHT22;52211;50.154;8.682;2023-08-01T13:12:34;23.10;62.30
65568;DHT22;52211;50.154;8.682;2023-08-01T13:15:00;23.30;62.70
65568;DHT22;52211;50.154;8.682;2023-08-01T13:17:42;23.60;62.70
65568;DHT22;52211;50.154;8.682;2023-08-01T13:20:14;23.90;62.70
65568;DHT22;52211;50.154;8.682;2023-08-01T13:22:42;24.30;62.90
65568;DHT22;52211;50.154;8.682;2023-08-01T13:25:13;24.60;61.70
65568;DHT22;52211;50.154;8.682;2023-08-01T13:27:43;24.90;61.00
65568;DHT22;52211;50.154;8.682;2023-08-01T13:30:12;25.20;60.40
65568;DHT22;52211;50.154;8.682;2023-08-01T13:32:43;25.50;60.30
65568;DHT22;52211;50.154;8.682;2023-08-01T13:35:15;25.70;61.00
65568;DHT22;52211;50.154;8.682;2023-08-01T13:37:42;26.00;60.70
65568;DHT22;52211;50.154;8.682;2023-08-01T13:40:11;26.30;60.30
65568;DHT22;52211;50.154;8.682;2023-08-01T13:42:40;26.70;60.10
65568;DHT22;52211;50.154;8.682;2023-08-01T13:45:08;27.10;59.50
65568;DHT22;52211;50.154;8.682;2023-08-01T13:47:37;27.40;58.20
65568;DHT22;52211;50.154;8.682;2023-08-01T13:50:05;27.60;57.20
65568;DHT22;52211;50.154;8.682;2023-08-01T13:52:41;27.50;56.10
65568;DHT22;52211;50.154;8.682;2023-08-01T13:55:13;27.40;56.50
65568;DHT22;52211;50.154;8.682;2023-08-01T13:57:46;27.10;55.90
65568;DHT22;52211;50.154;8.682;2023-08-01T14:00:13;26.50;56.20
65568;DHT22;52211;50.154;8.682;2023-08-01T14:02:43;25.90;56.20
65568;DHT22;52211;50.154;8.682;2023-08-01T14:05:13;25.30;56.60
65568;DHT22;52211;50.154;8.682;2023-08-01T14:07:42;24.70;57.40
65568;DHT22;52211;50.154;8.682;2023-08-01T14:10:15;24.20;58.20
65568;DHT22;52211;50.154;8.682;2023-08-01T14:12:48;23.70;59.00
65568;DHT22;52211;50.154;8.682;2023-08-01T14:15:20;23.30;59.70
65568;DHT22;52211;50.154;8.682;2023-08-01T14:17:47;22.90;60.40
65568;DHT22;52211;50.154;8.682;2023-08-01T14:20:16;22.70;60.90
65568;DHT22;52211;50.154;8.682;2023-08-01T14:22:48;22.50;61.10
65568;DHT22;52211;50.154;8.682;2023-08-01T14:25:15;22.30;61.70
65568;DHT22;52211;50.154;8.682;2023-08-01T14:27:44;22.20;62.20
65568;DHT22;52211;50.154;8.682;2023-08-01T14:30:11;22.10;62.40
65568;DHT22;52211;50.154;8.682;2023-08-01T14:32:38;22.00;63.00
65568;DHT22;52211;50.154;8.682;2023-08-01T14:35:09;22.10;63.60
65568;DHT22;52211;50.154;8.682;2023-08-01T14:37:39;22.20;63.80
65568;DHT22;52211;50.154;8.682;2023-08-01T14:40:14;22.30;63.80
65568;DHT22;52211;50.154;8.682;2023-08-01T14:42:44;22.50;64.20
65568;DHT22;52211;50.154;8.682;2023-08-01T14:45:13;22.70;64.30
65568;DHT22;52211;50.154;8.682;2023-08-01T14:47:43;22.90;64.10
65568;DHT22;52211;50.154;8.682;2023-08-01T14:50:14;23.30;64.30
65568;DHT22;52211;50.154;8.682;2023-08-01T14:52:41;23.50;63.80
65568;DHT22;52211;50.154;8.682;2023-08-01T14:55:09;23.70;62.80
65568;DHT22;52211;50.154;8.682;2023-08-01T14:57:36;23.90;62.40
65568;DHT22;52211;50.154;8.682;2023-08-01T15:00:05;23.90;62.00
65568;DHT22;52211;50.154;8.682;2023-08-01T15:02:35;24.00;61.60
65568;DHT22;52211;50.154;8.682;2023-08-01T15:05:02;24.00;61.30
65568;DHT22;52211;50.154;8.682;2023-08-01T15:07:32;24.00;60.70
65568;DHT22;52211;50.154;8.682;2023-08-01T15:10:02;23.90;60.80
65568;DHT22;52211;50.154;8.682;2023-08-01T15:12:33;23.90;60.80
65568;DHT22;52211;50.154;8.682;2023-08-01T15:15:00;23.80;60.60
65568;DHT22;52211;50.154;8.682;2023-08-01T15:17:27;23.90;61.10
65568;DHT22;52211;50.154;8.682;2023-08-01T15:19:59;24.00;61.30
65568;DHT22;52211;50.154;8.682;2023-08-01T15:22:29;24.20;60.80
65568;DHT22;52211;50.154;8.682;2023-08-01T15:24:56;24.30;60.40
65568;DHT22;52211;50.154;8.682;2023-08-01T15:27:27;24.40;59.90
65568;DHT22;52211;50.154;8.682;2023-08-01T15:30:01;24.60;60.40
65568;DHT22;52211;50.154;8.682;2023-08-01T15:32:30;24.70;60.30
65568;DHT22;52211;50.154;8.682;2023-08-01T15:34:57;25.00;59.70
65568;DHT22;52211;50.154;8.682;2023-08-01T15:37:27;25.20;59.20
65568;DHT22;52211;50.154;8.682;2023-08-01T15:39:57;25.20;57.80
65568;DHT22;52211;50.154;8.682;2023-08-01T15:42:24;25.20;57.00
65568;DHT22;52211;50.154;8.682;2023-08-01T15:44:51;25.10;57.20
65568;DHT22;52211;50.154;8.682;2023-08-01T15:47:18;24.90;56.50
65568;DHT22;52211;50.154;8.682;2023-08-01T15:49:47;24.80;56.30